Time;durP1;ratioP1;P1;durP2;ratioP2;P2;SDS_P1;SDS_P2;PMS_P1;PMS_P2;Temp;Humidity;BMP_temperature;BMP_pressure;BME280_temperature;BME280_humidity;BME280_pressure;Samples;Min_cycle;Max_cycle;Signal;HPM_P1;HPM_P2
2021/04/05 00:00:30;;;;;;;26.83;17.90;;;9.10;89.40;;;;;;5075259;28;20201;-70
2021/04/05 00:02:57;;;;;;;22.87;16.70;;;9.00;89.80;;;;;;5074676;28;20173;-70
2021/04/05 00:05:31;;;;;;;24.87;17.83;;;9.00;89.70;;;;;;5075152;28;20413;-70
2021/04/05 00:07:58;;;;;;;27.37;17.27;;;9.00;89.50;;;;;;5072146;28;20756;-70
2021/04/05 00:10:25;;;;;;;22.97;17.13;;;9.10;89.70;;;;;;5073917;28;20764;-70
2021/04/05 00:12:52;;;;;;;24.77;17.47;;;9.10;89.60;;;;;;5074453;28;20411;-70
2021/04/05 00:15:19;;;;;;;26.00;17.80;;;9.10;90.00;;;;;;5074931;28;20501;-70
2021/04/05 00:17:45;;;;;;;25.23;16.00;;;9.10;90.00;;;;;;5073401;28;20431;-71
2021/04/05 00:20:14;;;;;;;20.43;15.70;;;9.10;89.90;;;;;;5074945;28;20782;-70
2021/04/05 00:22:44;;;;;;;23.73;15.93;;;9.10;90.00;;;;;;5074695;28;20731;-70
2021/04/05 00:25:10;;;;;;;21.67;14.63;;;9.10;89.90;;;;;;5073858;28;20907;-70
2021/04/05 00:27:37;;;;;;;25.77;16.70;;;9.00;90.10;;;;;;5073008;28;20396;-70
2021/04/05 00:30:25;;;;;;;24.53;15.23;;;9.00;90.20;;;;;;5072158;28;20411;-70
2021/04/05 00:32:53;;;;;;;23.10;16.10;;;9.00;90.20;;;;;;5071146;28;20952;-70
2021/04/05 00:35:20;;;;;;;23.73;16.67;;;9.00;90.30;;;;;;5074055;28;20467;-70
2021/04/05 00:37:48;;;;;;;27.27;16.80;;;9.10;90.30;;;;;;5074006;28;20500;-71
2021/04/05 00:40:17;;;;;;;23.73;16.23;;;9.10;90.10;;;;;;5074152;28;20404;-70
2021/04/05 00:42:44;;;;;;;22.77;16.13;;;9.00;90.30;;;;;;5074234;28;20504;-70
2021/04/05 00:45:12;;;;;;;25.10;17.40;;;8.90;90.50;;;;;;5073116;28;20455;-70
2021/04/05 00:47:49;;;;;;;23.63;15.47;;;9.00;90.50;;;;;;5074185;28;20517;-70
2021/04/05 00:50:32;;;;;;;21.17;16.23;;;9.00;90.50;;;;;;5072539;28;20510;-70
2021/04/05 00:52:59;;;;;;;24.00;16.63;;;9.00;90.30;;;;;;5073386;28;20875;-70
2021/04/05 00:55:26;;;;;;;23.67;16.63;;;9.00;90.40;;;;;;5073607;28;20434;-70
2021/04/05 00:57:53;;;;;;;25.13;16.10;;;9.00;90.50;;;;;;5073163;28;20462;-71
2021/04/05 01:00:31;;;;;;;26.00;16.10;;;9.00;90.70;;;;;;5073857;28;20430;-70
2021/04/05 01:02:57;;;;;;;25.00;16.60;;;8.90;90.80;;;;;;5072810;28;20970;-72
2021/04/05 01:05:23;;;;;;;22.70;15.67;;;8.90;90.90;;;;;;5073704;28;20568;-69
2021/04/05 01:07:52;;;;;;;20.10;14.53;;;8.80;90.90;;;;;;5073180;28;20414;-70
2021/04/05 01:10:18;;;;;;;22.33;16.17;;;8.80;91.20;;;;;;5073685;28;20465;-69
2021/04/05 01:12:44;;;;;;;25.43;16.70;;;8.90;91.20;;;;;;5073766;28;20418;-69
2021/04/05 01:15:12;;;;;;;24.80;16.20;;;8.90;91.00;;;;;;5073040;28;20944;-69
2021/04/05 01:17:38;;;;;;;21.80;15.80;;;8.90;90.80;;;;;;5073143;28;20212;-69
2021/04/05 01:20:12;;;;;;;24.37;16.43;;;9.00;90.90;;;;;;5072133;28;20419;-69
2021/04/05 01:22:41;;;;;;;22.10;15.27;;;9.00;90.70;;;;;;5106134;28;20776;-69
2021/04/05 01:25:11;;;;;;;21.83;15.50;;;9.00;90.80;;;;;;5071190;28;20427;-72
2021/04/05 01:27:38;;;;;;;24.53;15.60;;;8.90;90.60;;;;;;5073351;28;20428;-69
2021/04/05 01:30:27;;;;;;;19.67;14.60;;;9.00;90.90;;;;;;5072091;28;20933;-69
2021/04/05 01:33:03;;;;;;;23.50;14.80;;;8.90;90.70;;;;;;5072671;28;20906;-70
2021/04/05 01:35:29;;;;;;;22.33;14.80;;;8.90;90.90;;;;;;5071724;28;20445;-69
2021/04/05 01:37:55;;;;;;;21.43;14.37;;;8.90;91.00;;;;;;5072052;28;20451;-70
2021/04/05 01:40:21;;;;;;;22.73;14.70;;;8.90;90.90;;;;;;5073174;28;20757;-69
2021/04/05 01:42:47;;;;;;;20.00;13.97;;;8.90;90.90;;;;;;5071812;28;20218;-69
2021/04/05 01:45:17;;;;;;;22.90;15.50;;;8.90;90.90;;;;;;5071853;28;20442;-70
2021/04/05 01:47:42;;;;;;;21.37;15.13;;;8.90;91.00;;;;;;5072939;28;20181;-69
2021/04/05 01:50:09;;;;;;;22.27;14.57;;;9.00;91.00;;;;;;5070903;28;20479;-69
2021/04/05 01:52:39;;;;;;;21.00;13.97;;;9.00;91.10;;;;;;5072904;28;20172;-69
2021/04/05 01:55:05;;;;;;;24.53;15.40;;;9.00;90.90;;;;;;5072069;28;20411;-69
2021/04/05 01:57:31;;;;;;;22.30;15.40;;;9.10;91.00;;;;;;5072282;28;20546;-69
2021/04/05 01:59:57;;;;;;;21.50;14.30;;;9.10;91.00;;;;;;5072216;28;20825;-70
2021/04/05 02:02:23;;;;;;;17.80;14.67;;;9.00;91.00;;;;;;5072722;28;20621;-69
2021/04/05 02:04:49;;;;;;;20.70;14.50;;;9.10;91.00;;;;;;5072529;28;20192;-69
2021/04/05 02:07:15;;;;;;;19.60;14.67;;;9.10;90.90;;;;;;5071331;28;20426;-70
2021/04/05 02:09:40;;;;;;;21.70;16.07;;;9.10;90.90;;;;;;5071486;28;20450;-69
2021/04/05 02:12:07;;;;;;;21.30;14.97;;;9.10;91.00;;;;;;5071718;28;20218;-69
2021/04/05 02:14:33;;;;;;;23.67;15.37;;;9.10;91.20;;;;;;5071984;28;20264;-69
2021/04/05 02:16:59;;;;;;;22.00;15.93;;;9.00;91.30;;;;;;5071105;28;20466;-69
2021/04/05 02:19:25;;;;;;;22.77;15.50;;;9.00;91.30;;;;;;5072459;28;20426;-69
2021/04/05 02:21:53;;;;;;;26.67;16.43;;;9.10;91.20;;;;;;5072337;28;20184;-69
2021/04/05 02:24:19;;;;;;;31.13;16.50;;;9.00;91.10;;;;;;5071228;28;20183;-69
2021/04/05 02:26:46;;;;;;;27.03;16.40;;;9.00;91.50;;;;;;5072349;28;20512;-69
2021/04/05 02:29:17;;;;;;;25.53;16.40;;;8.90;91.50;;;;;;5071081;28;20514;-70
2021/04/05 02:31:43;;;;;;;25.30;17.47;;;8.90;91.40;;;;;;5071820;28;20395;-69
2021/04/05 02:34:12;;;;;;;26.00;16.23;;;8.90;91.50;;;;;;5071186;28;20426;-70
2021/04/05 02:36:39;;;;;;;27.60;16.70;;;8.90;91.40;;;;;;5072233;28;20457;-69
2021/04/05 02:39:08;;;;;;;25.10;17.13;;;8.90;91.50;;;;;;5069694;28;20493;-70
2021/04/05 02:41:36;;;;;;;26.23;15.67;;;8.90;91.50;;;;;;5071910;28;20443;-69
2021/04/05 02:44:04;;;;;;;24.90;17.93;;;8.90;91.40;;;;;;5071656;28;20410;-70
2021/04/05 02:46:35;;;;;;;30.20;17.00;;;9.00;91.50;;;;;;5071953;28;20823;-70
2021/04/05 02:49:04;;;;;;;28.90;16.83;;;9.10;91.40;;;;;;5071358;28;20395;-70
2021/04/05 02:51:31;;;;;;;23.50;16.53;;;9.10;91.10;;;;;;5070507;28;20446;-70
2021/04/05 02:54:01;;;;;;;23.60;16.80;;;9.00;91.30;;;;;;5071133;28;20399;-71
2021/04/05 02:56:28;;;;;;;29.10;17.40;;;9.00;91.50;;;;;;5072099;28;20451;-69
2021/04/05 02:58:56;;;;;;;29.77;16.13;;;9.00;91.60;;;;;;5071302;28;20800;-71
2021/04/05 03:01:27;;;;;;;29.23;18.57;;;9.10;91.60;;;;;;5070361;28;20411;-70
2021/04/05 03:03:56;;;;;;;30.10;17.53;;;9.10;91.30;;;;;;5072068;28;20757;-69
2021/04/05 03:06:24;;;;;;;30.80;18.17;;;9.10;91.40;;;;;;5072088;28;20419;-70
2021/04/05 03:08:50;;;;;;;30.30;18.90;;;9.00;91.50;;;;;;5071899;28;20393;-70
2021/04/05 03:11:19;;;;;;;29.17;19.07;;;9.00;91.60;;;;;;5070873;28;20745;-69
2021/04/05 03:13:45;;;;;;;27.40;17.33;;;9.00;91.90;;;;;;5072166;28;20489;-70
2021/04/05 03:16:17;;;;;;;30.70;18.60;;;9.00;91.70;;;;;;5070746;28;20446;-70
2021/04/05 03:18:44;;;;;;;29.70;19.17;;;9.00;91.70;;;;;;5071670;28;20468;-70
2021/04/05 03:21:12;;;;;;;27.70;19.67;;;8.90;91.80;;;;;;5071023;28;20418;-70
2021/04/05 03:23:39;;;;;;;26.77;19.10;;;8.80;92.10;;;;;;5071809;28;20722;-69
2021/04/05 03:26:05;;;;;;;28.87;17.60;;;8.90;92.30;;;;;;5071009;28;20486;-70
2021/04/05 03:28:31;;;;;;;28.33;19.10;;;8.80;92.30;;;;;;5071726;28;20968;-70
2021/04/05 03:31:06;;;;;;;24.50;17.93;;;8.90;92.30;;;;;;5071724;28;20268;-71
2021/04/05 03:33:40;;;;;;;29.50;18.53;;;8.90;92.20;;;;;;5071761;28;20395;-70
2021/04/05 03:36:32;;;;;;;27.47;18.80;;;8.90;92.20;;;;;;5071002;28;20911;-70
2021/04/05 03:38:59;;;;;;;30.33;19.90;;;8.90;92.30;;;;;;5070399;28;20442;-71
2021/04/05 03:41:55;;;;;;;27.80;18.97;;;9.00;92.20;;;;;;5071589;28;20407;-70
2021/04/05 03:44:24;;;;;;;28.43;18.93;;;9.00;92.30;;;;;;5074754;28;20427;-70
2021/04/05 03:46:55;;;;;;;31.67;18.80;;;9.00;92.30;;;;;;5075481;28;20419;-70
2021/04/05 03:49:30;;;;;;;33.20;19.67;;;9.00;92.60;;;;;;5073070;28;20913;-70
2021/04/05 03:52:04;;;;;;;31.07;21.93;;;9.00;92.50;;;;;;5075180;28;20384;-70
2021/04/05 03:54:42;;;;;;;28.27;17.20;;;9.00;92.60;;;;;;5075311;28;20883;-70
2021/04/05 03:57:09;;;;;;;32.43;19.13;;;9.00;92.70;;;;;;5073104;28;20838;-70
2021/04/05 03:59:43;;;;;;;23.90;17.43;;;8.90;92.60;;;;;;5074528;28;20438;-69
2021/04/05 04:02:19;;;;;;;31.00;19.33;;;9.00;92.70;;;;;;5074098;28;20440;-70
2021/04/05 04:05:12;;;;;;;32.73;17.30;;;9.10;92.80;;;;;;5074705;28;20406;-70
2021/04/05 04:10:08;;;;;;;30.03;18.33;;;9.20;92.60;;;;;;5074110;28;20457;-70
2021/04/05 04:12:36;;;;;;;26.37;17.93;;;9.30;92.40;;;;;;5074711;28;20486;-71
2021/04/05 04:15:03;;;;;;;30.73;17.93;;;9.30;92.50;;;;;;5073735;28;20397;-72
2021/04/05 04:17:33;;;;;;;31.03;18.77;;;9.20;92.80;;;;;;5074681;28;20512;-71
2021/04/05 04:20:03;;;;;;;25.70;17.90;;;9.20;92.70;;;;;;5074761;28;20412;-72
2021/04/05 04:22:31;;;;;;;30.57;19.40;;;9.20;92.90;;;;;;5074689;28;20485;-71
2021/04/05 04:24:59;;;;;;;24.80;17.20;;;9.30;92.90;;;;;;5074567;28;20403;-71
2021/04/05 04:27:25;;;;;;;29.60;18.30;;;9.30;92.90;;;;;;5074044;28;20430;-71
2021/04/05 04:29:52;;;;;;;28.73;18.43;;;9.30;92.90;;;;;;5074251;28;20411;-71
2021/04/05 04:32:18;;;;;;;24.50;18.47;;;9.20;93.10;;;;;;5073690;28;20208;-71
2021/04/05 04:34:44;;;;;;;25.67;17.77;;;9.10;93.40;;;;;;5074468;28;20483;-71
2021/04/05 04:37:11;;;;;;;27.13;18.03;;;9.10;93.60;;;;;;5073515;28;20917;-71
2021/04/05 04:39:37;;;;;;;31.90;18.73;;;9.10;93.90;;;;;;5074068;28;20431;-71
2021/04/05 04:42:03;;;;;;;28.00;18.87;;;9.10;93.70;;;;;;5073257;28;20419;-73
2021/04/05 04:44:29;;;;;;;37.20;19.10;;;9.10;93.80;;;;;;5074155;28;20825;-71
2021/04/05 04:46:54;;;;;;;28.63;18.37;;;9.10;93.90;;;;;;5073817;28;20407;-71
2021/04/05 04:49:23;;;;;;;30.00;21.00;;;9.20;93.80;;;;;;5073072;28;20420;-71
2021/04/05 04:51:48;;;;;;;27.60;19.17;;;9.20;94.10;;;;;;5074131;28;20248;-71
2021/04/05 04:54:14;;;;;;;23.90;18.30;;;9.20;94.10;;;;;;5072420;28;20469;-71
2021/04/05 04:56:40;;;;;;;29.80;20.00;;;9.20;94.30;;;;;;5073633;28;20196;-71
2021/04/05 04:59:08;;;;;;;29.93;18.77;;;9.20;94.00;;;;;;5073157;28;20169;-72
2021/04/05 05:01:41;;;;;;;27.10;18.17;;;9.20;94.20;;;;;;5073924;28;20180;-71
2021/04/05 05:04:28;;;;;;;25.90;18.67;;;9.20;94.30;;;;;;5071895;28;20749;-71
2021/04/05 05:06:57;;;;;;;29.00;21.03;;;9.20;94.40;;;;;;5072290;28;20543;-71
2021/04/05 05:09:24;;;;;;;30.37;20.60;;;9.20;94.50;;;;;;5072686;28;20410;-71
2021/04/05 05:11:51;;;;;;;31.97;20.50;;;9.20;95.10;;;;;;5073667;28;20404;-71
2021/04/05 05:14:18;;;;;;;32.93;20.97;;;9.20;94.90;;;;;;5072851;28;20411;-71
2021/04/05 05:16:45;;;;;;;26.50;18.43;;;9.30;95.10;;;;;;5073184;28;20429;-71
2021/04/05 05:19:13;;;;;;;28.70;19.07;;;9.40;94.90;;;;;;5072728;28;20516;-72
2021/04/05 05:21:52;;;;;;;27.20;20.10;;;9.40;94.70;;;;;;5073418;28;20399;-71
2021/04/05 05:24:24;;;;;;;26.10;18.87;;;9.40;94.80;;;;;;5072811;28;20492;-71
2021/04/05 05:26:50;;;;;;;26.33;20.40;;;9.40;94.80;;;;;;5073614;28;20399;-71
2021/04/05 05:29:21;;;;;;;25.60;19.27;;;9.30;94.90;;;;;;5071725;28;20453;-72
2021/04/05 05:31:47;;;;;;;25.90;19.53;;;9.30;95.00;;;;;;5073141;28;20737;-71
2021/04/05 05:34:15;;;;;;;32.00;19.50;;;9.40;95.00;;;;;;5072152;28;20418;-72
2021/04/05 05:36:43;;;;;;;29.10;19.17;;;9.40;95.00;;;;;;5073223;28;20536;-72
2021/04/05 05:39:10;;;;;;;24.83;19.73;;;9.50;95.00;;;;;;5072326;28;20422;-72
2021/04/05 05:41:52;;;;;;;28.00;19.43;;;9.50;95.00;;;;;;5072998;28;20408;-71
2021/04/05 05:44:45;;;;;;;28.47;19.77;;;9.50;94.90;;;;;;5072338;28;20403;-72
2021/04/05 05:47:22;;;;;;;28.77;19.73;;;9.50;95.10;;;;;;5071988;28;20415;-72
2021/04/05 05:49:50;;;;;;;29.40;20.33;;;9.50;95.20;;;;;;5073001;28;20386;-71
2021/04/05 05:52:37;;;;;;;26.87;19.13;;;9.50;95.40;;;;;;5072323;28;20535;-72
2021/04/05 05:55:22;;;;;;;30.37;19.33;;;9.50;95.10;;;;;;5072924;28;20409;-71
2021/04/05 05:58:03;;;;;;;25.77;20.23;;;9.40;95.50;;;;;;5072957;28;20447;-71
2021/04/05 06:00:53;;;;;;;25.87;19.63;;;9.40;95.70;;;;;;5071424;28;20901;-72
2021/04/05 06:03:32;;;;;;;33.43;20.40;;;9.40;95.90;;;;;;5071044;28;20446;-71
2021/04/05 06:06:14;;;;;;;24.70;18.53;;;9.40;95.90;;;;;;5071504;28;20415;-70
2021/04/05 06:09:09;;;;;;;28.53;19.70;;;9.30;96.00;;;;;;5072713;28;20784;-70
2021/04/05 06:11:49;;;;;;;32.00;20.53;;;9.30;96.00;;;;;;5072088;28;20407;-70
2021/04/05 06:14:23;;;;;;;28.43;20.60;;;9.40;96.30;;;;;;5070744;28;20391;-71
2021/04/05 06:17:13;;;;;;;29.63;20.20;;;9.40;96.40;;;;;;5071929;28;20463;-70
2021/04/05 06:19:51;;;;;;;30.57;20.47;;;9.40;96.70;;;;;;5060727;28;20517;-69
2021/04/05 06:22:41;;;;;;;29.83;21.77;;;9.40;96.90;;;;;;5071415;28;20395;-70
2021/04/05 06:25:13;;;;;;;29.47;19.97;;;9.40;97.20;;;;;;5072029;28;20411;-70
2021/04/05 06:28:01;;;;;;;27.87;20.40;;;9.40;97.50;;;;;;5072986;28;20526;-71
2021/04/05 06:30:53;;;;;;;28.30;20.90;;;9.40;97.90;;;;;;5072115;28;20409;-70
2021/04/05 06:33:36;;;;;;;28.27;21.03;;;9.40;98.00;;;;;;5070726;28;20403;-71
2021/04/05 06:36:29;;;;;;;27.30;19.40;;;9.40;98.30;;;;;;5071629;28;20511;-70
2021/04/05 06:39:03;;;;;;;31.73;19.77;;;9.40;98.50;;;;;;5071063;28;20553;-70
2021/04/05 06:41:35;;;;;;;29.37;19.90;;;9.50;98.70;;;;;;5070942;28;20464;-70
2021/04/05 06:44:29;;;;;;;28.60;20.33;;;9.40;98.70;;;;;;5067543;28;20450;-70
2021/04/05 06:47:19;;;;;;;26.73;19.93;;;9.40;98.90;;;;;;5072387;28;20488;-70
2021/04/05 06:50:17;;;;;;;25.67;19.87;;;9.40;98.80;;;;;;5071915;28;20431;-71
2021/04/05 06:52:58;;;;;;;30.90;21.53;;;9.40;98.90;;;;;;5067206;28;20409;-70
2021/04/05 06:55:57;;;;;;;26.03;20.10;;;9.50;99.20;;;;;;5071002;28;20474;-70
2021/04/05 06:58:25;;;;;;;33.20;22.47;;;9.40;99.10;;;;;;5071256;28;20435;-70
2021/04/05 07:01:34;;;;;;;29.17;21.30;;;9.40;99.00;;;;;;5071405;28;20764;-71
2021/04/05 07:04:20;;;;;;;26.53;19.63;;;9.40;99.20;;;;;;5070640;28;20474;-70
2021/04/05 07:07:18;;;;;;;26.53;20.77;;;9.40;99.30;;;;;;5071320;28;20867;-71
2021/04/05 07:10:11;;;;;;;28.20;19.87;;;9.30;99.80;;;;;;5071806;28;20943;-71
2021/04/05 07:13:05;;;;;;;23.23;18.93;;;9.30;99.90;;;;;;5050894;28;20431;-71
2021/04/05 07:15:52;;;;;;;28.10;20.93;;;9.20;99.90;;;;;;5068708;28;20442;-71
2021/04/05 07:18:48;;;;;;;27.93;20.40;;;9.30;99.90;;;;;;5062780;28;20731;-71
2021/04/05 07:21:49;;;;;;;24.77;19.40;;;9.20;99.90;;;;;;5075404;28;20426;-72
2021/04/05 07:24:32;;;;;;;24.67;19.50;;;9.30;99.90;;;;;;5054754;28;20416;-71
2021/04/05 07:27:13;;;;;;;29.07;21.73;;;9.30;99.90;;;;;;5055946;28;20412;-70
2021/04/05 07:30:09;;;;;;;27.57;21.27;;;9.20;99.90;;;;;;5072225;28;20480;-70
2021/04/05 07:32:40;;;;;;;28.07;20.27;;;9.20;99.90;;;;;;5067882;28;20893;-70
2021/04/05 07:35:19;;;;;;;28.93;21.13;;;9.30;99.90;;;;;;5075056;28;20548;-69
2021/04/05 07:38:03;;;;;;;31.07;20.80;;;9.20;99.90;;;;;;5065744;28;20474;-73
2021/04/05 07:41:00;;;;;;;25.67;20.30;;;9.20;99.90;;;;;;5073684;28;20419;-71
2021/04/05 07:43:50;;;;;;;25.37;20.77;;;9.30;99.90;;;;;;5073801;28;20784;-71
2021/04/05 07:46:22;;;;;;;27.40;20.20;;;9.30;99.90;;;;;;5073219;28;20446;-70
2021/04/05 07:49:11;;;;;;;28.40;20.50;;;9.20;99.90;;;;;;5075276;28;20405;-71
2021/04/05 07:51:55;;;;;;;30.63;21.00;;;9.30;99.90;;;;;;5065811;28;20491;-70
2021/04/05 07:54:23;;;;;;;26.43;20.53;;;9.30;99.90;;;;;;5074289;28;20407;-71
2021/04/05 07:57:37;;;;;;;23.10;19.57;;;9.20;99.90;;;;;;5074346;28;20459;-70
2021/04/05 08:00:07;;;;;;;25.87;18.27;;;9.10;99.90;;;;;;5061523;28;21663;-70
2021/04/05 08:02:50;;;;;;;11.10;8.60;;;9.10;99.90;;;;;;5074854;28;20446;-73
2021/04/05 08:05:35;;;;;;;6.53;5.80;;;8.90;99.90;;;;;;5074583;28;20407;-71
2021/04/05 08:08:26;;;;;;;4.73;4.33;;;8.70;98.70;;;;;;5075240;28;20787;-71
2021/04/05 08:11:10;;;;;;;6.20;5.70;;;8.30;97.90;;;;;;5068739;28;20440;-72
2021/04/05 08:13:39;;;;;;;6.93;6.33;;;8.90;99.90;;;;;;5073631;28;20806;-72
2021/04/05 08:16:11;;;;;;;6.03;5.53;;;9.50;99.90;;;;;;5074861;28;20459;-72
2021/04/05 08:18:50;;;;;;;7.13;6.53;;;10.00;99.90;;;;;;5074742;28;20434;-72
2021/04/05 08:21:21;;;;;;;5.53;5.13;;;10.70;99.90;;;;;;5073688;28;20420;-72
2021/04/05 08:24:12;;;;;;;8.73;6.43;;;11.20;99.90;;;;;;5075067;28;20534;-72
2021/04/05 08:26:48;;;;;;;4.23;3.93;;;11.70;99.50;;;;;;5070922;28;20437;-75
2021/04/05 08:29:26;;;;;;;4.83;4.43;;;12.00;97.40;;;;;;5071872;28;20863;-74
2021/04/05 08:32:01;;;;;;;4.13;3.83;;;12.10;92.50;;;;;;5075136;28;20422;-73
2021/04/05 08:34:50;;;;;;;4.70;4.30;;;12.20;92.30;;;;;;5073872;28;20434;-72
2021/04/05 08:37:36;;;;;;;3.90;3.70;;;12.60;96.10;;;;;;5074100;28;20456;-72
2021/04/05 08:40:28;;;;;;;4.93;4.53;;;12.80;93.30;;;;;;5074378;28;20431;-72
2021/04/05 08:42:59;;;;;;;5.00;3.90;;;13.10;93.70;;;;;;5082210;28;20410;-72
2021/04/05 08:45:35;;;;;;;6.00;5.40;;;13.40;92.00;;;;;;5077318;28;20785;-72
2021/04/05 08:48:21;;;;;;;4.67;3.53;;;13.50;90.80;;;;;;5074702;28;20418;-72
2021/04/05 08:51:18;;;;;;;7.10;5.57;;;13.60;89.10;;;;;;5074551;28;20394;-72
2021/04/05 08:53:57;;;;;;;3.40;3.20;;;13.50;91.00;;;;;;5070245;28;20427;-72
2021/04/05 08:56:33;;;;;;;4.13;3.80;;;13.60;90.70;;;;;;5073981;28;20845;-72
2021/04/05 08:59:05;;;;;;;4.00;3.70;;;13.70;90.10;;;;;;5074370;28;20445;-71
2021/04/05 09:01:47;;;;;;;4.30;3.90;;;13.70;86.20;;;;;;5089082;28;20409;-72
2021/04/05 09:04:19;;;;;;;4.87;4.37;;;13.70;86.80;;;;;;5094601;28;20415;-72
2021/04/05 09:07:13;;;;;;;3.43;3.13;;;13.80;90.20;;;;;;5093361;28;20800;-71
2021/04/05 09:09:41;;;;;;;3.70;2.87;;;13.90;85.40;;;;;;5079625;28;20789;-70
2021/04/05 09:12:10;;;;;;;3.30;2.70;;;13.70;80.70;;;;;;5073955;28;20426;-72
2021/04/05 09:15:04;;;;;;;3.93;3.33;;;13.20;80.80;;;;;;5073359;28;20842;-70
2021/04/05 09:17:56;;;;;;;3.43;3.23;;;12.20;82.30;;;;;;5073455;28;20439;-70
2021/04/05 09:20:33;;;;;;;442.07;268.30;;;11.30;86.40;;;;;;5072959;28;20712;-69
2021/04/05 09:23:09;;;;;;;20.33;13.30;;;10.80;90.20;;;;;;5073545;28;20418;-70
2021/04/05 09:26:10;;;;;;;3.00;2.80;;;10.30;91.50;;;;;;5069720;28;20468;-69
2021/04/05 09:28:57;;;;;;;3.00;2.80;;;9.90;92.40;;;;;;5065256;28;20428;-70
2021/04/05 09:31:41;;;;;;;3.00;2.80;;;9.40;94.30;;;;;;5072343;28;20419;-69
2021/04/05 09:34:25;;;;;;;4.17;3.37;;;9.10;95.90;;;;;;5073122;28;20403;-69
2021/04/05 09:37:27;;;;;;;3.70;3.40;;;8.80;95.70;;;;;;5073063;28;20909;-69
2021/04/05 09:40:31;;;;;;;5.33;3.60;;;8.50;95.70;;;;;;5073224;28;20418;-69
2021/04/05 09:43:11;;;;;;;5.80;3.50;;;8.30;95.90;;;;;;5070594;28;20410;-70
2021/04/05 09:46:24;;;;;;;3.77;3.47;;;8.10;96.40;;;;;;5072250;28;20812;-70
2021/04/05 09:49:12;;;;;;;5.00;4.00;;;8.00;97.50;;;;;;5063071;28;20428;-71
2021/04/05 09:51:38;;;;;;;5.20;3.10;;;7.80;96.70;;;;;;5072856;28;20543;-70
2021/04/05 09:54:28;;;;;;;3.90;3.00;;;7.80;97.30;;;;;;5072759;28;20513;-70
2021/04/05 09:56:59;;;;;;;3.93;3.03;;;7.70;96.50;;;;;;5072986;28;20508;-70
2021/04/05 09:59:56;;;;;;;6.83;2.57;;;7.60;96.40;;;;;;5072703;28;20390;-71
2021/04/05 10:02:36;;;;;;;5.30;3.20;;;7.40;96.80;;;;;;5071908;28;20416;-70
2021/04/05 10:05:03;;;;;;;8.30;3.30;;;7.40;96.60;;;;;;5070731;28;20391;-71
2021/04/05 10:07:31;;;;;;;6.30;2.80;;;7.20;97.40;;;;;;5072270;28;20468;-71
2021/04/05 10:10:00;;;;;;;3.33;3.03;;;7.20;97.50;;;;;;5072480;28;20387;-70
2021/04/05 10:12:28;;;;;;;5.40;3.70;;;7.20;98.00;;;;;;5072165;28;20383;-71
2021/04/05 10:14:56;;;;;;;5.53;3.90;;;7.30;98.70;;;;;;5072650;28;20420;-70
2021/04/05 10:17:24;;;;;;;7.97;3.70;;;7.30;97.80;;;;;;5071919;28;20455;-71
2021/04/05 10:19:55;;;;;;;6.00;4.00;;;7.40;98.40;;;;;;5072754;28;20405;-70
2021/04/05 10:22:22;;;;;;;6.37;3.50;;;7.40;97.90;;;;;;5072261;28;20400;-71
2021/04/05 10:24:51;;;;;;;8.40;3.77;;;7.40;97.60;;;;;;5072791;28;20494;-70
2021/04/05 10:27:19;;;;;;;6.47;3.93;;;7.40;98.30;;;;;;5072556;28;20483;-71
2021/04/05 10:29:49;;;;;;;9.13;5.17;;;7.50;98.30;;;;;;5081422;28;20409;-70
2021/04/05 10:32:19;;;;;;;4.63;3.20;;;7.50;98.50;;;;;;5079257;28;20761;-70
2021/04/05 10:34:49;;;;;;;6.43;3.70;;;7.40;98.10;;;;;;5072539;28;20481;-72
2021/04/05 10:37:20;;;;;;;3.90;3.47;;;7.50;97.40;;;;;;5072965;28;20522;-72
2021/04/05 10:39:55;;;;;;;5.57;3.40;;;7.50;97.00;;;;;;5072674;28;20779;-71
2021/04/05 10:42:22;;;;;;;7.20;3.77;;;7.40;95.60;;;;;;5072231;28;20398;-71
2021/04/05 10:44:53;;;;;;;5.77;4.20;;;7.40;96.50;;;;;;5075260;28;20501;-70
2021/04/05 10:47:25;;;;;;;74.57;42.97;;;7.40;95.90;;;;;;5081710;28;20416;-70
2021/04/05 10:49:52;;;;;;;7.63;4.70;;;7.30;95.70;;;;;;5081444;28;20375;-70
2021/04/05 10:52:26;;;;;;;4.50;3.23;;;7.30;96.60;;;;;;5091959;28;20499;-70
2021/04/05 10:54:54;;;;;;;5.30;3.27;;;7.40;95.90;;;;;;5092692;28;20863;-70
2021/04/05 10:57:33;;;;;;;5.87;2.80;;;7.40;96.30;;;;;;5088441;28;20447;-70
2021/04/05 11:00:05;;;;;;;2.30;2.10;;;7.30;97.00;;;;;;5071618;28;20412;-70
2021/04/05 11:02:36;;;;;;;2.30;2.10;;;7.10;96.80;;;;;;5071452;28;20448;-69
2021/04/05 11:05:15;;;;;;;2.37;2.07;;;7.10;96.60;;;;;;5071153;28;20444;-69
2021/04/05 11:07:44;;;;;;;2.67;2.47;;;6.90;97.20;;;;;;5071151;28;20451;-69
2021/04/05 11:10:19;;;;;;;2.30;2.20;;;6.80;97.60;;;;;;5071650;28;20492;-70
2021/04/05 11:12:49;;;;;;;2.70;2.50;;;6.70;97.50;;;;;;5051145;28;20370;-69
2021/04/05 11:15:20;;;;;;;2.40;2.30;;;6.50;96.90;;;;;;5052090;28;20463;-69
2021/04/05 11:17:50;;;;;;;3.00;2.80;;;6.40;96.20;;;;;;5050811;28;21281;-69
2021/04/05 11:20:19;;;;;;;2.67;2.58;;;6.40;96.00;;;;;;5057287;28;20409;-69
2021/04/05 11:22:46;;;;;;;2.95;2.50;;;6.40;96.50;;;;;;5071300;28;20184;-69
2021/04/05 11:25:20;;;;;;;4.40;3.17;;;6.50;96.70;;;;;;5071536;28;20315;-70
2021/04/05 11:27:55;;;;;;;2.90;2.60;;;6.60;97.20;;;;;;5067339;28;20488;-70
2021/04/05 11:30:27;;;;;;;3.03;2.73;;;6.60;95.80;;;;;;5072062;28;20844;-69
2021/04/05 11:32:53;;;;;;;2.90;2.80;;;6.70;96.10;;;;;;5071994;28;20431;-70
2021/04/05 11:35:21;;;;;;;3.03;2.83;;;6.90;96.60;;;;;;5071647;28;20838;-69
2021/04/05 11:37:51;;;;;;;2.50;2.40;;;7.00;96.00;;;;;;5071159;28;20478;-70
2021/04/05 11:40:20;;;;;;;2.43;2.30;;;7.20;95.90;;;;;;5070555;28;20749;-70
2021/04/05 11:42:49;;;;;;;3.60;2.80;;;7.20;95.40;;;;;;5069527;28;20454;-70
2021/04/05 11:45:42;;;;;;;48.80;26.17;;;7.30;94.40;;;;;;5071633;28;20443;-70
2021/04/05 11:48:22;;;;;;;6.33;5.73;;;7.40;94.80;;;;;;5072066;28;20809;-70
2021/04/05 11:50:49;;;;;;;2.60;2.40;;;7.40;94.40;;;;;;5069906;28;20421;-70
2021/04/05 11:53:26;;;;;;;2.70;2.50;;;7.40;94.10;;;;;;5068528;28;20463;-70
2021/04/05 11:56:03;;;;;;;2.33;2.20;;;7.40;94.20;;;;;;5095379;28;20951;-70
2021/04/05 11:58:37;;;;;;;3.95;2.40;;;7.40;93.00;;;;;;5067375;28;20435;-70
2021/04/05 12:01:05;;;;;;;2.23;2.10;;;7.40;91.80;;;;;;5068614;28;20615;-70
2021/04/05 12:03:42;;;;;;;6.20;3.40;;;7.20;92.10;;;;;;5071106;28;20462;-70
2021/04/05 12:06:13;;;;;;;3.00;2.80;;;7.10;91.70;;;;;;5075334;28;20807;-70
2021/04/05 12:09:07;;;;;;;4.30;3.00;;;7.20;91.70;;;;;;5074645;28;20416;-71
2021/04/05 12:11:45;;;;;;;2.83;2.30;;;7.00;92.20;;;;;;5074834;28;20468;-70
2021/04/05 12:14:28;;;;;;;2.50;2.27;;;7.00;91.40;;;;;;5075086;28;20892;-70
2021/04/05 12:16:57;;;;;;;2.50;2.30;;;6.90;90.40;;;;;;5075156;28;20462;-71
2021/04/05 12:19:42;;;;;;;2.50;2.30;;;6.70;90.50;;;;;;5082639;28;20401;-71
2021/04/05 12:22:09;;;;;;;2.73;2.50;;;6.70;90.70;;;;;;5072058;28;20768;-70
2021/04/05 12:24:41;;;;;;;4.57;2.10;;;6.70;87.10;;;;;;5074021;28;20423;-70
2021/04/05 12:27:11;;;;;;;3.50;2.30;;;6.60;83.60;;;;;;5074846;28;20427;-70
2021/04/05 12:29:39;;;;;;;2.43;2.33;;;6.50;82.70;;;;;;5073863;28;20416;-70
2021/04/05 12:32:07;;;;;;;2.93;2.43;;;6.50;84.10;;;;;;5074331;28;20773;-70
2021/04/05 12:34:36;;;;;;;5.20;2.20;;;6.50;87.30;;;;;;5070932;28;20419;-70
2021/04/05 12:37:16;;;;;;;2.25;2.15;;;6.50;86.50;;;;;;5073043;28;20458;-69
2021/04/05 12:39:49;;;;;;;3.83;2.30;;;6.60;87.30;;;;;;5070241;28;20174;-69
2021/04/05 12:42:16;;;;;;;2.70;2.47;;;6.70;90.30;;;;;;5074652;28;20398;-69
2021/04/05 12:44:52;;;;;;;3.90;2.87;;;6.90;91.40;;;;;;5073619;28;20820;-69
2021/04/05 12:47:18;;;;;;;3.70;2.20;;;7.20;91.50;;;;;;5074331;28;20812;-69
2021/04/05 12:49:47;;;;;;;4.53;2.77;;;7.60;90.70;;;;;;5073861;28;20421;-69
2021/04/05 12:52:19;;;;;;;5.40;2.43;;;8.00;90.40;;;;;;5074689;28;20423;-69
2021/04/05 12:54:48;;;;;;;5.67;2.97;;;8.30;88.20;;;;;;5073215;28;20378;-69
2021/04/05 12:57:15;;;;;;;2.13;2.03;;;8.30;87.90;;;;;;5073903;28;20431;-68
2021/04/05 12:59:42;;;;;;;106.20;69.50;;;7.80;83.40;;;;;;5073766;28;20415;-69
2021/04/05 13:02:11;;;;;;;7.83;6.60;;;7.20;85.40;;;;;;5073717;28;20816;-69
2021/04/05 13:04:56;;;;;;;4.93;1.70;;;7.10;86.50;;;;;;5072833;28;20466;-70
2021/04/05 13:07:35;;;;;;;3.30;2.27;;;6.90;85.30;;;;;;5071942;28;20386;-69
2021/04/05 13:10:17;;;;;;;3.53;1.87;;;6.80;84.10;;;;;;5072100;28;20386;-69
2021/04/05 13:12:52;;;;;;;3.23;2.07;;;6.80;83.60;;;;;;5071716;28;20359;-69
2021/04/05 13:15:22;;;;;;;2.07;1.73;;;7.00;83.20;;;;;;5072202;28;20450;-69
2021/04/05 13:17:54;;;;;;;1.67;1.57;;;7.20;82.80;;;;;;5072178;28;20453;-69
2021/04/05 13:20:28;;;;;;;1.80;1.70;;;7.50;89.10;;;;;;5073407;28;20755;-69
2021/04/05 13:22:59;;;;;;;2.20;2.00;;;7.90;83.00;;;;;;5073583;28;20485;-69